createdAt,value
2018-04-19T00:01:37.197Z,6.90
2018-04-19T00:05:39.960Z,6.90
2018-04-19T00:09:42.860Z,6.90
2018-04-19T00:13:46.629Z,7.00
2018-04-19T00:17:49.462Z,7.00
2018-04-19T00:21:52.241Z,6.90
2018-04-19T00:25:55.033Z,6.80
2018-04-19T00:29:57.779Z,6.80
2018-04-19T00:34:01.399Z,6.80
2018-04-19T00:38:04.943Z,6.70
2018-04-19T00:42:07.661Z,6.70
2018-04-19T00:46:10.440Z,6.60
2018-04-19T00:50:13.446Z,6.50
2018-04-19T00:54:16.189Z,6.50
2018-04-19T00:58:18.914Z,6.60
2018-04-19T01:02:21.808Z,6.60
2018-04-19T01:06:25.336Z,6.40
2018-04-19T01:10:28.183Z,6.40
2018-04-19T01:14:30.920Z,6.30
2018-04-19T01:18:33.744Z,6.30
2018-04-19T01:22:36.495Z,6.20
2018-04-19T01:26:39.285Z,6.20
2018-04-19T01:30:42.122Z,6.20
2018-04-19T01:34:44.855Z,6.10
2018-04-19T01:38:47.876Z,6.10
2018-04-19T01:42:50.600Z,6.00
2018-04-19T01:46:54.217Z,6.00
2018-04-19T01:50:57.743Z,6.00
2018-04-19T01:55:00.730Z,6.00
2018-04-19T01:59:03.634Z,6.00
2018-04-19T02:03:07.163Z,5.90
2018-04-19T02:07:11.081Z,5.80
2018-04-19T02:11:13.846Z,5.80
2018-04-19T02:15:16.643Z,5.80
2018-04-19T02:19:19.380Z,5.70
2018-04-19T02:23:22.293Z,5.70
2018-04-19T02:27:25.082Z,5.70
2018-04-19T02:31:27.873Z,5.60
2018-04-19T02:35:30.691Z,5.60
2018-04-19T02:39:33.878Z,5.70
2018-04-19T02:43:36.616Z,5.70
2018-04-19T02:47:39.566Z,5.60
2018-04-19T02:51:42.371Z,5.50
2018-04-19T02:55:45.209Z,5.50
2018-04-19T02:59:48.003Z,5.50
2018-04-19T03:03:50.857Z,5.40
2018-04-19T03:07:53.701Z,5.40
2018-04-19T03:11:56.487Z,5.40
2018-04-19T03:15:59.326Z,5.30
2018-04-19T03:20:02.101Z,5.30
2018-04-19T03:24:04.845Z,5.20
2018-04-19T03:28:07.687Z,5.20
2018-04-19T03:32:10.464Z,5.20
2018-04-19T03:36:13.204Z,5.10
2018-04-19T03:40:16.157Z,5.10
2018-04-19T03:44:18.915Z,5.10
2018-04-19T03:48:21.957Z,5.00
2018-04-19T03:52:24.756Z,5.00
2018-04-19T03:56:27.626Z,5.00
2018-04-19T04:00:30.344Z,4.90
2018-04-19T04:04:34.033Z,4.90
2018-04-19T04:08:36.784Z,4.90
2018-04-19T04:12:39.724Z,4.90
2018-04-19T04:16:54.258Z,4.90
2018-04-19T04:21:04.037Z,5.00
2018-04-19T04:25:06.772Z,5.00
2018-04-19T04:29:09.958Z,5.00
2018-04-19T04:33:13.469Z,5.00
2018-04-19T04:37:17.232Z,5.10
2018-04-19T04:41:20.044Z,5.00
2018-04-19T04:45:22.909Z,5.10
2018-04-19T04:49:25.640Z,5.20
2018-04-19T04:53:28.460Z,5.20
2018-04-19T04:57:31.279Z,5.30
2018-04-19T05:01:34.725Z,5.30
2018-04-19T05:05:37.610Z,5.40
2018-04-19T05:09:41.132Z,5.50
2018-04-19T05:13:43.953Z,5.50
2018-04-19T05:17:47.517Z,5.80
2018-04-19T05:21:51.025Z,5.90
2018-04-19T05:25:53.874Z,5.90
2018-04-19T05:29:56.769Z,6.00
2018-04-19T05:33:59.533Z,6.10
2018-04-19T05:38:02.719Z,6.30
2018-04-19T05:42:05.493Z,6.50
2018-04-19T05:46:08.256Z,6.70
2018-04-19T05:50:11.082Z,6.80
2018-04-19T05:54:14.037Z,7.10
2018-04-19T05:58:17.558Z,7.60
2018-04-19T06:02:21.064Z,7.80
2018-04-19T06:06:24.702Z,8.10
2018-04-19T06:10:27.449Z,8.10
2018-04-19T06:14:30.207Z,8.40
2018-04-19T06:18:33.131Z,8.70
2018-04-19T06:22:35.991Z,8.90
2018-04-19T06:26:38.876Z,9.20
2018-04-19T06:30:42.392Z,9.70
2018-04-19T06:34:45.209Z,9.70
2018-04-19T06:38:47.984Z,10.00
2018-04-19T06:42:50.721Z,10.40
2018-04-19T06:46:55.008Z,10.50
2018-04-19T06:50:57.735Z,11.00
2018-04-19T06:55:01.728Z,11.40
2018-04-19T06:59:04.485Z,11.60
2018-04-19T07:03:08.016Z,12.30
2018-04-19T07:07:10.966Z,12.30
2018-04-19T07:11:13.702Z,12.80
2018-04-19T07:15:16.440Z,13.00
2018-04-19T07:19:20.180Z,13.70
2018-04-19T07:23:22.912Z,13.70
2018-04-19T07:27:26.065Z,14.20
2018-04-19T07:31:29.659Z,14.90
2018-04-19T07:35:32.527Z,14.90
2018-04-19T07:39:35.270Z,15.30
2018-04-19T07:43:38.055Z,15.90
2018-04-19T07:47:40.880Z,16.10
2018-04-19T07:51:44.401Z,16.70
2018-04-19T07:55:47.901Z,16.90
2018-04-19T07:59:51.496Z,17.10
2018-04-19T08:03:54.336Z,17.20
2018-04-19T08:07:57.192Z,17.50
2018-04-19T08:12:02.143Z,17.80
2018-04-19T08:16:05.290Z,18.00
2018-04-19T08:20:08.345Z,18.50
2018-04-19T08:24:11.106Z,18.70
2018-04-19T08:28:14.040Z,19.10
2018-04-19T08:32:16.823Z,19.40
2018-04-19T08:36:19.576Z,19.40
2018-04-19T08:40:22.686Z,20.00
2018-04-19T08:44:25.475Z,20.60
2018-04-19T08:48:29.190Z,21.90
2018-04-19T08:52:32.764Z,22.40
2018-04-19T08:56:35.521Z,22.40
2018-04-19T09:00:38.538Z,23.30
2018-04-19T09:04:41.364Z,23.40
2018-04-19T09:08:45.435Z,23.70
2018-04-19T09:12:48.969Z,24.30
2018-04-19T09:16:51.704Z,24.30
2018-04-19T09:20:54.538Z,23.90
2018-04-19T09:24:58.113Z,24.50
2018-04-19T09:29:01.102Z,24.40
2018-04-19T09:33:03.936Z,24.30
2018-04-19T09:37:06.691Z,24.60
2018-04-19T09:41:09.556Z,24.60
2018-04-19T09:45:13.048Z,25.00
2018-04-19T09:49:16.006Z,25.00
2018-04-19T09:53:18.826Z,25.90
2018-04-19T09:57:21.572Z,24.70
2018-04-19T10:01:25.400Z,23.90
2018-04-19T10:05:29.009Z,24.20
2018-04-19T10:09:32.615Z,24.70
2018-04-19T10:13:36.231Z,25.20
2018-04-19T10:17:39.742Z,25.40
2018-04-19T10:21:42.742Z,25.40
2018-04-19T10:25:45.489Z,25.00
2018-04-19T10:29:48.217Z,25.10
2018-04-19T10:33:51.023Z,25.80
2018-04-19T10:37:54.584Z,27.40
2018-04-19T10:41:57.623Z,27.40
2018-04-19T10:46:00.550Z,27.90
2018-04-19T10:50:03.503Z,27.50
2018-04-19T10:54:06.260Z,27.40
2018-04-19T10:58:09.762Z,28.50
2018-04-19T11:02:12.506Z,28.50
2018-04-19T11:06:15.341Z,29.30
2018-04-19T11:10:18.122Z,28.40
2018-04-19T11:14:21.664Z,29.90
2018-04-19T11:18:24.409Z,29.90
2018-04-19T11:22:27.204Z,28.90
2018-04-19T11:26:29.976Z,28.40
2018-04-19T11:30:33.459Z,31.00
2018-04-19T11:34:36.250Z,31.00
2018-04-19T11:38:39.002Z,31.50
2018-04-19T11:42:42.729Z,33.00
2018-04-19T11:46:45.473Z,32.90
2018-04-19T11:50:48.337Z,32.50
2018-04-19T11:54:51.323Z,30.00
2018-04-19T11:58:54.057Z,31.60
2018-04-19T12:02:57.641Z,33.40
2018-04-19T12:07:00.560Z,33.30
2018-04-19T12:11:03.305Z,33.70
2018-04-19T12:15:06.249Z,33.70
2018-04-19T12:19:09.055Z,34.50
2018-04-19T12:23:11.866Z,35.20
2018-04-19T12:27:14.681Z,36.10
2018-04-19T12:31:17.448Z,35.60
2018-04-19T12:35:20.362Z,35.80
2018-04-19T12:39:23.212Z,35.40
2018-04-19T12:43:27.009Z,34.30
2018-04-19T12:47:29.738Z,34.20
2018-04-19T12:51:33.257Z,36.30
2018-04-19T12:55:37.035Z,35.90
2018-04-19T12:59:39.942Z,35.90
2018-04-19T13:03:42.691Z,36.40
2018-04-19T13:07:45.821Z,35.60
2018-04-19T13:11:48.531Z,36.00
2018-04-19T13:15:51.396Z,36.00
2018-04-19T13:19:54.270Z,36.40
2018-04-19T13:23:57.035Z,36.00
2018-04-19T13:27:59.783Z,34.70
2018-04-19T13:32:02.526Z,34.20
2018-04-19T13:36:05.381Z,34.60
2018-04-19T13:40:08.157Z,35.40
2018-04-19T13:44:11.731Z,35.20
2018-04-19T13:48:15.363Z,36.30
2018-04-19T13:52:18.888Z,36.20
2018-04-19T13:56:22.434Z,36.60
2018-04-19T14:00:25.932Z,36.30
2018-04-19T14:04:29.553Z,35.30
2018-04-19T14:08:32.749Z,35.30
2018-04-19T14:12:35.607Z,36.60
2018-04-19T14:16:38.656Z,36.50
2018-04-19T14:20:41.387Z,36.50
2018-04-19T14:24:44.136Z,36.70
2018-04-19T14:28:46.989Z,36.90
2018-04-19T14:32:49.714Z,36.40
2018-04-19T14:36:52.671Z,35.60
2018-04-19T14:40:55.515Z,34.80
2018-04-19T14:44:58.240Z,33.60
2018-04-19T14:49:01.252Z,34.60
2018-04-19T14:53:04.044Z,33.50
2018-04-19T14:57:07.182Z,34.50
2018-04-19T15:01:09.959Z,33.00
2018-04-19T15:05:13.491Z,32.80
2018-04-19T15:09:16.384Z,32.80
2018-04-19T15:13:19.148Z,33.80
2018-04-19T15:17:22.029Z,34.20
2018-04-19T15:21:24.976Z,34.30
2018-04-19T15:25:27.745Z,33.00
2018-04-19T15:29:30.636Z,30.10
2018-04-19T15:33:33.355Z,28.60
2018-04-19T15:37:36.391Z,27.30
2018-04-19T15:41:40.429Z,25.70
2018-04-19T15:45:43.960Z,25.30
2018-04-19T15:49:46.725Z,25.30
2018-04-19T15:53:49.497Z,24.70
2018-04-19T15:57:52.228Z,24.60
2018-04-19T16:01:55.131Z,24.40
2018-04-19T16:05:57.861Z,24.00
2018-04-19T16:10:00.626Z,23.50
2018-04-19T16:14:03.950Z,23.50
2018-04-19T16:18:10.153Z,23.40
2018-04-19T16:22:13.087Z,23.10
2018-04-19T16:26:16.557Z,22.70
2018-04-19T16:30:19.310Z,22.60
2018-04-19T16:34:22.040Z,22.60
2018-04-19T16:38:24.746Z,22.60
2018-04-19T16:42:27.549Z,22.60
2018-04-19T16:46:30.287Z,22.50
2018-04-19T16:50:33.794Z,22.10
2018-04-19T16:54:37.337Z,21.80
2018-04-19T16:58:40.819Z,21.80
2018-04-19T17:02:44.372Z,21.30
2018-04-19T17:06:47.195Z,21.30
2018-04-19T17:10:50.037Z,21.00
2018-04-19T17:14:53.876Z,20.50
2018-04-19T17:18:56.694Z,20.50
2018-04-19T17:22:59.409Z,20.20
2018-04-19T17:27:02.110Z,19.90
2018-04-19T17:31:04.988Z,19.60
2018-04-19T17:35:07.729Z,19.30
2018-04-19T17:39:10.525Z,19.10
2018-04-19T17:47:53.860Z,18.50
2018-04-19T17:51:56.583Z,18.20
2018-04-19T17:56:00.091Z,17.60
2018-04-19T18:00:03.716Z,17.30
2018-04-19T18:04:06.545Z,17.20
2018-04-19T18:08:09.273Z,17.10
2018-04-19T18:12:12.026Z,16.90
2018-04-19T18:16:14.855Z,16.60
2018-04-19T18:20:17.590Z,16.50
2018-04-19T18:24:20.399Z,16.20
2018-04-19T18:28:23.895Z,15.70
2018-04-19T18:32:28.308Z,15.70
2018-04-19T18:36:31.149Z,15.60
2018-04-19T18:40:34.617Z,15.20
2018-04-19T18:44:37.438Z,15.20
2018-04-19T18:48:40.271Z,15.00
2018-04-19T18:52:42.974Z,14.80
2018-04-19T18:56:45.924Z,14.70
2018-04-19T19:00:48.628Z,14.50
2018-04-19T19:04:51.492Z,14.40
2018-04-19T19:08:55.241Z,14.10
2018-04-19T19:12:58.083Z,14.10
2018-04-19T19:17:00.998Z,14.10
2018-04-19T19:21:03.837Z,13.90
2018-04-19T19:25:06.619Z,13.80
2018-04-19T19:29:10.340Z,13.60
2018-04-19T19:33:13.269Z,13.50
2018-04-19T19:37:16.273Z,13.40
2018-04-19T19:41:18.998Z,13.40
2018-04-19T19:45:21.770Z,13.30
2018-04-19T19:49:25.541Z,13.10
2018-04-19T19:53:28.280Z,13.00
2018-04-19T19:57:31.031Z,13.00
2018-04-19T20:01:34.023Z,12.90
2018-04-19T20:05:36.931Z,12.80
2018-04-19T20:09:39.881Z,12.80
2018-04-19T20:13:42.612Z,12.70
2018-04-19T20:17:45.505Z,12.60
2018-04-19T20:21:48.981Z,12.40
2018-04-19T20:25:51.735Z,12.40
2018-04-19T20:29:54.932Z,12.30
2018-04-19T20:33:57.716Z,12.40
2018-04-19T20:38:01.329Z,12.10
2018-04-19T20:42:04.869Z,12.10
2018-04-19T20:46:07.706Z,12.10
2018-04-19T20:50:11.681Z,12.00
2018-04-19T20:54:15.184Z,11.80
2018-04-19T20:58:18.719Z,11.70
2018-04-19T21:02:21.475Z,11.70
2018-04-19T21:06:24.311Z,11.60
2018-04-19T21:10:27.147Z,11.50
2018-04-19T21:14:29.858Z,11.50
2018-04-19T21:18:33.693Z,11.40
2018-04-19T21:22:36.462Z,11.30
2018-04-19T21:26:39.997Z,11.10
2018-04-19T21:30:42.905Z,11.10
2018-04-19T21:34:45.720Z,11.20
2018-04-19T21:38:48.577Z,11.10
2018-04-19T21:42:51.349Z,11.00
2018-04-19T21:46:54.877Z,10.90
2018-04-19T21:50:57.663Z,10.80
2018-04-19T21:55:00.494Z,10.80
2018-04-19T21:59:03.247Z,10.80
2018-04-19T22:03:05.999Z,10.70
2018-04-19T22:07:08.738Z,10.70
2018-04-19T22:11:11.496Z,10.60
2018-04-19T22:15:14.247Z,10.60
2018-04-19T22:19:17.038Z,10.60
2018-04-19T22:23:19.817Z,10.50
2018-04-19T22:27:22.546Z,10.40
2018-04-19T22:31:26.599Z,10.30
2018-04-19T22:35:29.302Z,10.20
2018-04-19T22:39:32.033Z,10.20
2018-04-19T22:43:35.754Z,10.00
2018-04-19T22:47:39.277Z,10.00
2018-04-19T22:51:42.134Z,9.90
2018-04-19T22:55:44.844Z,9.90
2018-04-19T22:59:47.623Z,9.90
2018-04-19T23:03:50.341Z,10.00
2018-04-19T23:07:53.227Z,9.90
2018-04-19T23:11:55.917Z,9.90
2018-04-19T23:15:58.698Z,9.80
2018-04-19T23:20:01.417Z,9.70
2018-04-19T23:24:04.200Z,9.70
2018-04-19T23:28:06.910Z,9.50
2018-04-19T23:32:09.831Z,9.60
2018-04-19T23:36:13.407Z,9.30
2018-04-19T23:40:16.171Z,9.30
2018-04-19T23:44:18.891Z,9.20
2018-04-19T23:48:21.813Z,9.10
2018-04-19T23:52:24.538Z,9.10
2018-04-19T23:56:28.029Z,9.00
